METAR LOCAUX

2021/02/27 07:00 LFST 270700Z AUTO 01008KT 8000 OVC052 04/02 Q1036 NOSIG
2021/02/27 07:20 EDSB 270720Z 02007KT 5000 BR NSC 03/02 Q1036
2021/02/27 07:00 LFGA 270700Z AUTO 01012KT CAVOK 04/01 Q1035
www.noaa.gov

Ne pas utiliser pour préparer ou effectuer un vol: Utilisez la documentation officielle disponible sur aviation.meteo.fr (Aéroweb)


"Le soleil du matin ne dure pas forcément toute la journée."

Animation satellite IR

Meteociel.fr

"Derrière chaque nuage se cache le ciel bleu."

Radar pluie

Infoclimat.fr

"Si tu veux l’arc-en-ciel, tu dois supporter la pluie."
Dolly Parton

Nébulosité (octas)

Meteociel.fr

"Le soleil est souvent obscurci par les nuages et la raison par les passions."
Démophile

Impacts de foudre

www.meteo60.fr

"Celui que frappe la foudre n'entend pas le tonnerre."

Vigilance météo

vigilance-meteo.fr

"Tout nuage n'enfante pas une tempête."
William Shakespeare

TAF locaux

2021/02/27 06:21 TAF TAF LFST 270500Z 2706/2806 02010KT 7000 NSC BECMG 2708/2710 CAVOK TEMPO 2712/2718 03015G25KT
2021/02/27 06:27 TAF EDSB 270500Z 2706/2806 03010KT CAVOK PROB30 TEMPO 2706/2708 4000 BR TEMPO 2710/2717 03015G25KT
www.noaa.gov

Ne pas utiliser pour préparer ou effectuer un vol: Utilisez la documentation officielle disponible sur aviation.meteo.fr (Aéroweb)


"Les jours où le ciel est gris, le soleil n'a pas disparu à tout jamais."
Arnaud Desjardins

Prévisions 7 jours


Meteoblue.com

"Quand les crapauds chantent, le beau temps s'avance !"